Time;durP1;ratioP1;P1;durP2;ratioP2;P2;SDS_P1;SDS_P2;PMS_P1;PMS_P2;Temp;Humidity;BMP_temperature;BMP_pressure;BME280_temperature;BME280_humidity;BME280_pressure;Samples;Min_cycle;Max_cycle;Signal;HPM_P1;HPM_P2
2022/08/06 00:00:08;;;;;;;3.03;2.40;;;16.30;99.90;;;;;;493262;241;28741;-72
2022/08/06 00:02:09;;;;;;;3.10;2.90;;;16.30;99.90;;;;;;493262;241;28725;-68
2022/08/06 00:04:10;;;;;;;2.53;2.43;;;16.40;99.90;;;;;;493260;241;28787;-70
2022/08/06 00:06:11;;;;;;;1.80;1.70;;;16.40;99.90;;;;;;493175;241;28681;-68
2022/08/06 00:08:12;;;;;;;2.60;2.10;;;16.40;99.90;;;;;;493251;241;28765;-68
2022/08/06 00:10:14;;;;;;;2.70;2.50;;;16.30;99.90;;;;;;493250;241;28703;-70
2022/08/06 00:12:15;;;;;;;2.33;2.13;;;16.30;99.90;;;;;;493273;241;28680;-69
2022/08/06 00:14:16;;;;;;;2.20;2.10;;;16.20;99.90;;;;;;493265;241;28719;-68
2022/08/06 00:16:17;;;;;;;3.07;2.53;;;16.20;99.90;;;;;;493172;241;29234;-68
2022/08/06 00:18:19;;;;;;;2.50;2.30;;;16.20;99.90;;;;;;493281;241;29133;-68
2022/08/06 00:20:20;;;;;;;2.60;2.40;;;16.20;99.90;;;;;;493296;241;29194;-70
2022/08/06 00:22:21;;;;;;;2.03;1.93;;;16.20;99.90;;;;;;493282;241;28668;-68
2022/08/06 00:24:22;;;;;;;2.80;2.60;;;16.10;99.90;;;;;;493292;241;28711;-68
2022/08/06 00:26:24;;;;;;;2.83;2.63;;;16.10;99.90;;;;;;493212;241;28967;-67
2022/08/06 00:28:25;;;;;;;3.13;2.93;;;16.00;99.90;;;;;;493314;241;28731;-69
2022/08/06 00:30:26;;;;;;;2.40;2.20;;;16.10;99.90;;;;;;493308;241;28791;-69
2022/08/06 00:32:27;;;;;;;2.30;2.10;;;16.00;99.90;;;;;;493270;241;28682;-68
2022/08/06 00:34:29;;;;;;;2.60;2.50;;;16.00;99.90;;;;;;493275;241;28822;-68
2022/08/06 00:36:30;;;;;;;2.60;2.30;;;16.00;99.90;;;;;;492946;241;28724;-68
2022/08/06 00:38:31;;;;;;;6.80;3.00;;;15.90;99.90;;;;;;493133;241;28701;-68
2022/08/06 00:40:32;;;;;;;2.23;2.13;;;15.90;99.90;;;;;;493213;241;29211;-70
2022/08/06 00:42:34;;;;;;;2.77;2.57;;;15.90;99.90;;;;;;493121;241;29139;-68
2022/08/06 00:44:35;;;;;;;3.40;2.60;;;15.80;99.90;;;;;;493096;241;29230;-68
2022/08/06 00:46:36;;;;;;;4.03;3.00;;;15.80;99.90;;;;;;492953;241;29821;-68
2022/08/06 00:48:37;;;;;;;2.70;2.50;;;15.70;99.90;;;;;;493208;241;28748;-69
2022/08/06 00:50:39;;;;;;;4.53;3.00;;;15.70;99.90;;;;;;493279;241;28792;-69
2022/08/06 00:52:40;;;;;;;2.90;2.50;;;15.60;99.90;;;;;;493261;241;28732;-67
2022/08/06 00:54:41;;;;;;;2.90;2.70;;;15.60;99.90;;;;;;493259;241;28700;-67
2022/08/06 00:56:42;;;;;;;2.60;2.40;;;15.60;99.90;;;;;;493174;241;28716;-68
2022/08/06 00:58:44;;;;;;;3.00;2.80;;;15.60;99.90;;;;;;493280;241;28688;-68
2022/08/06 01:00:45;;;;;;;2.90;2.63;;;15.60;99.90;;;;;;493266;241;28744;-70
2022/08/06 01:02:46;;;;;;;2.70;2.50;;;15.60;99.90;;;;;;493260;241;28692;-68
2022/08/06 01:04:47;;;;;;;3.40;2.60;;;15.60;99.90;;;;;;493269;241;29097;-68
2022/08/06 01:06:49;;;;;;;2.83;2.53;;;15.60;99.90;;;;;;493197;241;29911;-68
2022/08/06 01:08:50;;;;;;;4.13;2.23;;;15.60;99.90;;;;;;493143;241;29230;-68
2022/08/06 01:10:51;;;;;;;3.87;2.50;;;15.50;99.90;;;;;;493283;241;29379;-71
2022/08/06 01:12:52;;;;;;;3.27;2.80;;;15.50;99.90;;;;;;493245;241;28685;-67
2022/08/06 01:14:54;;;;;;;2.73;2.50;;;15.50;99.90;;;;;;493255;241;28715;-69
2022/08/06 01:16:55;;;;;;;3.30;2.47;;;15.40;99.90;;;;;;493162;241;28681;-67
2022/08/06 01:18:56;;;;;;;2.60;2.40;;;15.50;99.90;;;;;;493291;241;28669;-68
2022/08/06 01:20:58;;;;;;;2.53;2.23;;;15.50;99.90;;;;;;493276;241;28779;-69
2022/08/06 01:22:59;;;;;;;2.47;2.27;;;15.50;99.90;;;;;;493260;241;28684;-67
2022/08/06 01:25:00;;;;;;;2.53;2.17;;;15.50;99.90;;;;;;493283;241;28731;-68
2022/08/06 01:27:01;;;;;;;2.03;1.93;;;15.50;99.90;;;;;;493163;241;28695;-68
2022/08/06 01:29:02;;;;;;;2.60;2.40;;;15.40;99.90;;;;;;493269;241;28755;-68
2022/08/06 01:31:04;;;;;;;2.90;2.43;;;15.40;99.90;;;;;;493283;241;29247;-70
2022/08/06 01:33:05;;;;;;;6.23;2.57;;;15.40;99.90;;;;;;493277;241;29219;-68
2022/08/06 01:35:06;;;;;;;2.40;2.27;;;15.40;99.90;;;;;;493140;241;29175;-69
2022/08/06 01:37:07;;;;;;;2.80;2.20;;;15.40;99.90;;;;;;493140;241;28729;-68
2022/08/06 01:39:09;;;;;;;2.70;2.40;;;15.30;99.90;;;;;;493277;241;28759;-69
2022/08/06 01:41:10;;;;;;;3.03;2.70;;;15.30;99.90;;;;;;493282;241;28715;-71
2022/08/06 01:43:11;;;;;;;3.40;2.60;;;15.30;99.90;;;;;;493272;241;28752;-68
2022/08/06 01:45:12;;;;;;;2.83;2.50;;;15.30;99.90;;;;;;493250;241;28728;-68
2022/08/06 01:47:14;;;;;;;2.77;1.97;;;15.30;99.90;;;;;;493183;241;28690;-69
2022/08/06 01:49:15;;;;;;;3.73;2.47;;;15.30;99.90;;;;;;493278;241;28704;-68
2022/08/06 01:51:16;;;;;;;2.50;2.30;;;15.30;99.90;;;;;;493297;241;28804;-70
2022/08/06 01:53:17;;;;;;;2.57;2.47;;;15.30;99.90;;;;;;493278;241;28377;-68
2022/08/06 01:55:19;;;;;;;2.60;2.40;;;15.20;99.90;;;;;;493267;241;29248;-69
2022/08/06 01:57:20;;;;;;;2.60;2.40;;;15.20;99.90;;;;;;493127;241;29927;-68
2022/08/06 01:59:21;;;;;;;2.77;2.57;;;15.20;99.90;;;;;;493287;241;28866;-68
2022/08/06 02:01:22;;;;;;;2.93;2.73;;;15.10;99.90;;;;;;493297;241;29275;-72
2022/08/06 02:03:24;;;;;;;5.57;2.50;;;15.10;99.90;;;;;;493268;241;28677;-68
2022/08/06 02:05:25;;;;;;;2.83;2.60;;;15.10;99.90;;;;;;493237;241;28784;-67
2022/08/06 02:07:26;;;;;;;3.60;2.57;;;15.10;99.90;;;;;;493120;241;28700;-68
2022/08/06 02:09:27;;;;;;;2.50;2.30;;;15.10;99.90;;;;;;493235;241;28455;-68
2022/08/06 02:11:29;;;;;;;3.10;2.57;;;15.10;99.90;;;;;;493265;241;28724;-69
2022/08/06 02:13:30;;;;;;;3.47;2.40;;;15.00;99.90;;;;;;493255;241;28723;-67
2022/08/06 02:15:31;;;;;;;2.67;2.47;;;15.00;99.90;;;;;;493259;241;28808;-67
2022/08/06 02:17:32;;;;;;;2.37;2.10;;;15.10;99.90;;;;;;493168;241;29136;-68
2022/08/06 02:19:34;;;;;;;2.80;2.20;;;15.00;99.90;;;;;;493286;241;28759;-68
2022/08/06 02:21:35;;;;;;;2.60;2.40;;;15.00;99.90;;;;;;493277;241;29175;-71
2022/08/06 02:23:36;;;;;;;2.87;2.67;;;15.00;99.90;;;;;;493248;241;29224;-67
2022/08/06 02:25:39;;;;;;;3.10;2.80;;;14.90;99.90;;;;;;493245;241;29387;-69
2022/08/06 02:27:39;;;;;;;2.30;2.13;;;15.00;99.90;;;;;;493122;241;28712;-67
2022/08/06 02:29:40;;;;;;;2.40;2.30;;;14.90;99.90;;;;;;493269;241;28774;-67
2022/08/06 02:31:41;;;;;;;2.77;2.57;;;14.90;99.90;;;;;;493263;241;28782;-70
2022/08/06 02:33:42;;;;;;;2.67;2.40;;;14.90;99.90;;;;;;493225;241;28668;-67
2022/08/06 02:35:44;;;;;;;2.53;2.33;;;14.90;99.90;;;;;;493149;241;28826;-68
2022/08/06 02:37:45;;;;;;;2.50;2.30;;;14.90;99.90;;;;;;493214;241;28488;-68
2022/08/06 02:39:46;;;;;;;2.20;2.10;;;14.90;99.90;;;;;;493310;241;28685;-68
2022/08/06 02:41:47;;;;;;;2.37;2.17;;;14.90;99.90;;;;;;493204;241;28711;-70
2022/08/06 02:43:49;;;;;;;5.37;2.70;;;14.80;99.90;;;;;;493263;241;28771;-67
2022/08/06 02:45:50;;;;;;;2.90;2.40;;;14.70;99.90;;;;;;493248;241;28935;-68
2022/08/06 02:47:51;;;;;;;2.50;2.30;;;14.70;99.90;;;;;;493144;241;29603;-68
2022/08/06 02:49:52;;;;;;;4.47;2.27;;;14.60;99.90;;;;;;493295;241;29144;-67
2022/08/06 02:51:54;;;;;;;2.17;2.07;;;14.60;99.90;;;;;;493261;241;29286;-69
2022/08/06 02:53:55;;;;;;;2.50;2.30;;;14.60;99.90;;;;;;493268;241;28466;-67
2022/08/06 02:55:56;;;;;;;4.60;2.47;;;14.60;99.90;;;;;;493235;241;28735;-69
2022/08/06 02:57:58;;;;;;;2.60;2.40;;;14.60;99.90;;;;;;493188;241;28418;-67
2022/08/06 02:59:59;;;;;;;3.37;2.77;;;14.60;99.90;;;;;;493300;241;28693;-68
2022/08/06 03:02:00;;;;;;;3.00;2.80;;;14.60;99.90;;;;;;493268;241;28779;-71
2022/08/06 03:04:01;;;;;;;5.77;2.70;;;14.60;99.90;;;;;;493266;241;28676;-68
2022/08/06 03:06:03;;;;;;;4.83;2.60;;;14.60;99.90;;;;;;493237;241;28410;-69
2022/08/06 03:08:05;;;;;;;3.03;2.70;;;14.50;99.90;;;;;;493227;241;28158;-68
2022/08/06 03:10:05;;;;;;;4.50;2.67;;;14.50;99.90;;;;;;493217;241;28266;-67
2022/08/06 03:12:06;;;;;;;2.80;2.60;;;14.50;99.90;;;;;;493301;241;28801;-72
2022/08/06 03:14:08;;;;;;;2.43;2.33;;;14.40;99.90;;;;;;493211;241;28833;-67
2022/08/06 03:16:09;;;;;;;2.47;2.30;;;14.40;99.90;;;;;;493201;241;29270;-68
2022/08/06 03:18:10;;;;;;;2.43;2.30;;;14.40;99.90;;;;;;493229;241;28323;-67
2022/08/06 03:20:11;;;;;;;3.07;2.70;;;14.50;99.90;;;;;;493270;241;28164;-67
2022/08/06 03:22:13;;;;;;;4.47;2.43;;;14.50;99.90;;;;;;493260;241;28203;-70
2022/08/06 03:24:14;;;;;;;2.40;2.20;;;14.40;99.90;;;;;;493194;241;28343;-68
2022/08/06 03:26:15;;;;;;;2.77;2.47;;;14.30;99.90;;;;;;493187;241;28215;-68
2022/08/06 03:28:16;;;;;;;2.60;2.40;;;14.30;99.90;;;;;;493258;241;28073;-68
2022/08/06 03:30:18;;;;;;;3.00;2.20;;;14.30;99.90;;;;;;493218;241;28240;-67
2022/08/06 03:32:19;;;;;;;2.60;2.40;;;14.30;99.90;;;;;;493248;241;28228;-69
2022/08/06 03:34:20;;;;;;;2.50;2.30;;;14.10;99.90;;;;;;493255;241;28421;-67
2022/08/06 03:36:21;;;;;;;2.00;1.90;;;14.20;99.90;;;;;;493075;241;28941;-69
2022/08/06 03:38:23;;;;;;;2.40;2.30;;;14.10;99.90;;;;;;493257;241;28878;-67
2022/08/06 03:40:24;;;;;;;2.50;2.30;;;14.10;99.90;;;;;;493272;241;28729;-68
2022/08/06 03:42:25;;;;;;;3.00;2.30;;;14.10;99.90;;;;;;493257;241;28662;-69
2022/08/06 03:44:26;;;;;;;2.57;2.37;;;14.10;99.90;;;;;;493249;241;28276;-68
2022/08/06 03:46:28;;;;;;;2.40;2.30;;;14.10;99.90;;;;;;493187;241;28431;-68
2022/08/06 03:48:29;;;;;;;2.80;2.30;;;14.10;99.90;;;;;;493286;241;28435;-67
2022/08/06 03:50:30;;;;;;;2.60;2.40;;;14.10;99.90;;;;;;493272;241;28812;-68
2022/08/06 03:52:31;;;;;;;2.43;2.23;;;14.10;99.90;;;;;;493252;241;28396;-68
2022/08/06 03:54:33;;;;;;;2.80;2.30;;;14.00;99.90;;;;;;493220;241;28342;-68
2022/08/06 03:56:34;;;;;;;2.20;2.00;;;13.90;99.90;;;;;;493128;241;28315;-68
2022/08/06 03:58:35;;;;;;;2.70;2.50;;;13.70;99.90;;;;;;493252;241;28865;-71
2022/08/06 04:00:36;;;;;;;5.13;2.10;;;13.70;99.90;;;;;;493257;241;28731;-68
2022/08/06 04:02:38;;;;;;;2.47;2.37;;;13.70;99.90;;;;;;493257;241;28898;-68
2022/08/06 04:04:39;;;;;;;2.10;2.00;;;13.80;99.90;;;;;;493257;241;28764;-68
2022/08/06 04:06:40;;;;;;;2.10;2.00;;;13.70;99.90;;;;;;493175;241;28728;-67
2022/08/06 04:08:41;;;;;;;2.00;1.90;;;13.70;99.90;;;;;;493261;241;28089;-67
2022/08/06 04:10:43;;;;;;;2.00;1.90;;;13.60;99.90;;;;;;493262;241;28397;-67
2022/08/06 04:12:44;;;;;;;2.17;2.07;;;13.60;99.90;;;;;;493262;241;28121;-69
2022/08/06 04:14:45;;;;;;;2.37;2.20;;;13.60;99.90;;;;;;493228;241;28066;-67
2022/08/06 04:16:47;;;;;;;2.30;2.10;;;13.60;99.90;;;;;;493105;241;28313;-67
2022/08/06 04:18:48;;;;;;;2.20;2.07;;;13.60;99.90;;;;;;493211;241;28389;-67
2022/08/06 04:20:49;;;;;;;2.60;2.40;;;13.60;99.90;;;;;;493269;241;28051;-68
2022/08/06 04:22:50;;;;;;;2.50;2.30;;;13.60;99.90;;;;;;493244;241;28216;-70
2022/08/06 04:24:51;;;;;;;2.10;2.00;;;13.50;99.90;;;;;;493241;241;28231;-67
2022/08/06 04:26:53;;;;;;;2.10;2.00;;;13.50;99.90;;;;;;493180;241;28698;-68
2022/08/06 04:28:55;;;;;;;3.70;2.17;;;13.50;99.90;;;;;;493261;241;29485;-67
2022/08/06 04:30:55;;;;;;;4.30;2.50;;;13.40;99.90;;;;;;493233;241;28588;-68
2022/08/06 04:32:56;;;;;;;2.10;2.00;;;13.40;99.90;;;;;;493283;241;28220;-71
2022/08/06 04:34:58;;;;;;;2.13;2.03;;;13.30;99.90;;;;;;493252;241;28388;-67
2022/08/06 04:36:59;;;;;;;2.50;2.27;;;13.30;99.90;;;;;;493089;241;28199;-68
2022/08/06 04:39:00;;;;;;;2.67;2.50;;;13.30;99.90;;;;;;493196;241;28080;-68
2022/08/06 04:41:01;;;;;;;2.30;2.20;;;13.30;99.90;;;;;;493270;241;28057;-67
2022/08/06 04:43:03;;;;;;;2.77;2.57;;;13.20;99.90;;;;;;493258;241;28806;-68
2022/08/06 04:45:04;;;;;;;2.60;2.40;;;13.20;99.90;;;;;;493256;241;28053;-68
2022/08/06 04:47:05;;;;;;;3.67;2.67;;;13.20;99.90;;;;;;493196;241;28196;-68
2022/08/06 04:49:06;;;;;;;3.00;2.80;;;13.20;99.90;;;;;;493225;241;28058;-67
2022/08/06 04:51:08;;;;;;;4.73;3.00;;;13.10;99.90;;;;;;493011;241;28518;-68
2022/08/06 04:53:09;;;;;;;2.73;2.53;;;13.20;99.90;;;;;;493218;241;28591;-70
2022/08/06 04:55:11;;;;;;;3.00;2.80;;;;;;;;;;493239;241;28776;-68
2022/08/06 04:57:13;;;;;;;2.53;2.33;;;13.20;99.90;;;;;;493197;240;26582;-67
2022/08/06 04:59:15;;;;;;;3.00;2.80;;;;;;;;;;493297;241;28163;-70
2022/08/06 05:01:16;;;;;;;2.73;2.53;;;13.30;99.90;;;;;;493294;240;26484;-67
2022/08/06 05:03:17;;;;;;;2.87;2.50;;;13.30;99.90;;;;;;493266;241;28190;-69
2022/08/06 05:05:19;;;;;;;2.80;2.60;;;13.20;99.90;;;;;;493257;241;28215;-67
2022/08/06 05:07:20;;;;;;;2.67;2.47;;;13.30;99.90;;;;;;493196;241;28517;-69
2022/08/06 05:09:21;;;;;;;2.50;2.40;;;13.50;99.90;;;;;;493288;241;28093;-71
2022/08/06 05:11:22;;;;;;;2.80;2.57;;;13.50;99.90;;;;;;493259;241;28065;-68
2022/08/06 05:13:24;;;;;;;3.80;2.87;;;13.50;99.90;;;;;;493282;240;28101;-68
2022/08/06 05:15:25;;;;;;;2.70;2.53;;;13.50;99.90;;;;;;493260;241;28272;-68
2022/08/06 05:17:26;;;;;;;2.93;2.60;;;13.60;99.90;;;;;;493190;241;28732;-68
2022/08/06 05:19:27;;;;;;;3.03;2.80;;;13.60;99.90;;;;;;493305;241;28660;-72
2022/08/06 05:21:29;;;;;;;4.20;2.90;;;13.40;99.90;;;;;;493260;241;28595;-68
2022/08/06 05:23:30;;;;;;;2.93;2.63;;;13.50;99.90;;;;;;493282;241;28294;-67
2022/08/06 05:25:31;;;;;;;3.10;2.83;;;13.40;99.90;;;;;;493252;241;28327;-68
2022/08/06 05:27:32;;;;;;;2.60;2.40;;;13.50;99.90;;;;;;493137;241;28409;-69
2022/08/06 05:29:34;;;;;;;2.87;2.30;;;13.40;99.90;;;;;;493271;241;28183;-71
2022/08/06 05:31:35;;;;;;;2.57;2.37;;;13.50;99.90;;;;;;493272;241;28098;-68
2022/08/06 05:33:36;;;;;;;2.93;2.60;;;13.60;99.90;;;;;;493284;241;28279;-70
2022/08/06 05:35:38;;;;;;;2.50;2.40;;;13.60;99.90;;;;;;493171;241;28267;-68
2022/08/06 05:37:39;;;;;;;2.33;2.23;;;13.80;99.90;;;;;;493178;241;28089;-69
2022/08/06 05:39:40;;;;;;;2.20;2.00;;;13.70;99.90;;;;;;493262;241;28199;-71
2022/08/06 05:41:42;;;;;;;3.10;2.10;;;13.90;99.90;;;;;;493298;241;28982;-68
2022/08/06 05:43:43;;;;;;;2.37;2.23;;;13.80;99.90;;;;;;493213;241;28921;-70
2022/08/06 05:45:44;;;;;;;3.63;2.23;;;13.80;99.90;;;;;;493253;241;28807;-67
2022/08/06 05:47:45;;;;;;;1.97;1.87;;;14.00;99.90;;;;;;493231;241;28750;-68
2022/08/06 05:49:46;;;;;;;2.70;2.00;;;14.10;99.90;;;;;;493322;241;28192;-71
2022/08/06 05:51:48;;;;;;;2.00;1.90;;;14.00;99.90;;;;;;493273;241;28226;-68
2022/08/06 05:53:49;;;;;;;2.10;2.00;;;14.00;99.90;;;;;;493276;241;28312;-68
2022/08/06 05:55:50;;;;;;;2.20;2.00;;;14.10;99.90;;;;;;493260;241;28702;-67
2022/08/06 05:57:51;;;;;;;2.23;2.00;;;14.20;99.90;;;;;;493191;241;28782;-69
2022/08/06 05:59:53;;;;;;;2.20;2.10;;;14.20;99.90;;;;;;493280;241;28085;-70
2022/08/06 06:01:54;;;;;;;4.03;2.30;;;14.20;99.90;;;;;;493266;241;28269;-68
2022/08/06 06:03:55;;;;;;;3.13;2.13;;;14.10;99.90;;;;;;493230;241;28301;-68
2022/08/06 06:05:56;;;;;;;2.60;1.93;;;14.20;99.90;;;;;;493225;241;28161;-69
2022/08/06 06:07:58;;;;;;;3.40;2.07;;;14.20;99.90;;;;;;492888;241;28279;-68
2022/08/06 06:09:59;;;;;;;3.33;2.37;;;14.20;99.90;;;;;;493246;241;28339;-71
2022/08/06 06:12:00;;;;;;;2.10;2.00;;;14.20;99.90;;;;;;493244;241;28476;-69
2022/08/06 06:14:02;;;;;;;2.23;2.00;;;14.20;99.90;;;;;;493201;241;28443;-69
2022/08/06 06:16:03;;;;;;;2.20;2.10;;;14.20;99.90;;;;;;493150;241;28178;-67
2022/08/06 06:18:04;;;;;;;3.43;1.90;;;14.30;99.90;;;;;;493151;241;28293;-68
2022/08/06 06:20:05;;;;;;;2.40;2.20;;;14.30;99.90;;;;;;493272;241;28446;-72
2022/08/06 06:22:06;;;;;;;2.37;2.17;;;14.40;99.90;;;;;;493288;241;28277;-67
2022/08/06 06:24:08;;;;;;;2.30;2.10;;;14.40;99.90;;;;;;493261;241;28844;-68
2022/08/06 06:26:09;;;;;;;2.20;2.00;;;14.40;99.90;;;;;;493186;241;28844;-67
2022/08/06 06:28:11;;;;;;;3.30;2.10;;;14.50;99.90;;;;;;493247;241;28915;-68
2022/08/06 06:30:11;;;;;;;5.67;2.07;;;14.40;99.90;;;;;;493217;241;28454;-71
2022/08/06 06:32:13;;;;;;;4.33;2.30;;;14.40;99.90;;;;;;493258;241;28267;-67
2022/08/06 06:34:14;;;;;;;5.27;2.10;;;14.50;99.90;;;;;;493282;241;28414;-69
2022/08/06 06:36:15;;;;;;;7.00;3.30;;;14.60;99.90;;;;;;493078;241;28158;-68
2022/08/06 06:38:17;;;;;;;1.93;1.80;;;14.60;99.90;;;;;;493235;241;28449;-68
2022/08/06 06:40:18;;;;;;;7.53;2.00;;;14.60;99.90;;;;;;493236;241;28719;-71
2022/08/06 06:42:19;;;;;;;2.17;1.93;;;14.80;99.90;;;;;;493268;241;28278;-68
2022/08/06 06:44:20;;;;;;;2.37;2.00;;;14.80;99.90;;;;;;493230;241;28301;-68
2022/08/06 06:46:21;;;;;;;2.73;1.83;;;14.90;99.90;;;;;;493137;241;28318;-68
2022/08/06 06:48:23;;;;;;;2.67;1.80;;;15.00;99.90;;;;;;493244;241;29273;-68
2022/08/06 06:50:25;;;;;;;2.70;2.10;;;15.00;99.90;;;;;;493272;241;29314;-72
2022/08/06 06:52:26;;;;;;;2.00;1.90;;;15.10;99.90;;;;;;493219;241;29126;-68
2022/08/06 06:54:26;;;;;;;2.83;2.10;;;15.20;99.90;;;;;;493212;241;29300;-68
2022/08/06 06:56:28;;;;;;;2.10;1.90;;;15.30;99.90;;;;;;493169;241;28692;-68
2022/08/06 06:58:31;;;;;;;5.43;2.00;;;15.30;99.90;;;;;;493257;241;28796;-68
2022/08/06 07:00:30;;;;;;;2.47;2.17;;;15.30;99.90;;;;;;493156;241;28749;-72
2022/08/06 07:02:31;;;;;;;2.67;2.10;;;15.40;99.90;;;;;;493266;241;28780;-68
2022/08/06 07:04:33;;;;;;;3.73;2.20;;;15.30;99.90;;;;;;493230;241;28704;-69
2022/08/06 07:06:34;;;;;;;2.43;2.23;;;15.50;99.90;;;;;;493099;241;28506;-68
2022/08/06 07:08:35;;;;;;;3.13;1.80;;;15.60;99.90;;;;;;493261;241;28694;-68
2022/08/06 07:10:36;;;;;;;1.77;1.67;;;15.70;99.90;;;;;;493289;241;28826;-70
2022/08/06 07:12:38;;;;;;;2.17;2.07;;;15.80;99.90;;;;;;493280;241;28774;-68
2022/08/06 07:14:39;;;;;;;3.67;2.13;;;15.80;99.90;;;;;;493294;241;29158;-68
2022/08/06 07:16:40;;;;;;;2.20;2.00;;;15.80;99.90;;;;;;493191;241;29441;-69
2022/08/06 07:18:41;;;;;;;2.20;2.10;;;15.90;99.90;;;;;;493254;241;29228;-67
2022/08/06 07:20:43;;;;;;;3.23;2.30;;;16.00;99.90;;;;;;493265;241;28807;-70
2022/08/06 07:22:44;;;;;;;2.27;2.07;;;16.10;99.90;;;;;;493252;241;28752;-69
2022/08/06 07:24:45;;;;;;;2.80;1.60;;;16.20;99.90;;;;;;493232;241;28706;-69
2022/08/06 07:26:46;;;;;;;2.17;2.07;;;16.10;99.90;;;;;;493118;241;28692;-68
2022/08/06 07:28:48;;;;;;;2.83;1.83;;;16.20;99.90;;;;;;493126;241;28738;-68
2022/08/06 07:30:49;;;;;;;3.97;2.27;;;16.30;99.90;;;;;;492481;241;28734;-71
2022/08/06 07:32:50;;;;;;;2.00;1.80;;;16.40;99.90;;;;;;491757;241;28739;-69
2022/08/06 07:34:51;;;;;;;2.10;1.90;;;16.40;99.90;;;;;;493148;241;28762;-69
2022/08/06 07:36:53;;;;;;;3.80;1.90;;;16.50;99.90;;;;;;493038;241;28679;-68
2022/08/06 07:38:54;;;;;;;3.07;1.87;;;16.60;99.90;;;;;;493268;241;29158;-69
2022/08/06 07:40:55;;;;;;;1.90;1.73;;;16.50;99.90;;;;;;493256;241;29175;-71
2022/08/06 07:42:56;;;;;;;4.90;1.90;;;16.60;99.90;;;;;;493255;241;29201;-68
2022/08/06 07:44:58;;;;;;;3.37;1.90;;;16.70;99.90;;;;;;493259;241;28733;-68
2022/08/06 07:46:59;;;;;;;5.70;2.10;;;16.70;99.90;;;;;;493143;241;28732;-68
2022/08/06 07:49:00;;;;;;;1.80;1.70;;;16.70;99.90;;;;;;493257;241;28708;-69
2022/08/06 07:51:02;;;;;;;1.80;1.70;;;16.80;99.90;;;;;;493261;241;28791;-71
2022/08/06 07:53:03;;;;;;;3.37;1.93;;;16.80;99.90;;;;;;493257;241;28808;-68
2022/08/06 07:55:04;;;;;;;3.10;1.90;;;16.80;99.90;;;;;;493246;241;28720;-69
2022/08/06 07:57:05;;;;;;;1.97;1.80;;;16.90;99.90;;;;;;493156;241;29075;-73
2022/08/06 07:59:07;;;;;;;1.80;1.70;;;16.90;99.90;;;;;;493277;241;28675;-68
2022/08/06 08:01:08;;;;;;;1.93;1.83;;;17.10;99.90;;;;;;493256;241;29266;-69
2022/08/06 08:07:48;;;;;;;2.10;1.57;;;17.40;99.90;;;;;;493144;241;28821;-70
2022/08/06 08:09:49;;;;;;;2.00;1.80;;;17.40;99.90;;;;;;493270;241;28673;-68
2022/08/06 08:11:50;;;;;;;2.00;1.90;;;17.40;99.90;;;;;;493251;241;28770;-69
2022/08/06 08:13:52;;;;;;;3.17;1.93;;;17.20;99.90;;;;;;493264;241;28704;-69
2022/08/06 08:15:53;;;;;;;2.03;1.93;;;17.40;99.90;;;;;;493287;241;28755;-69
2022/08/06 08:17:54;;;;;;;2.67;1.97;;;17.30;99.90;;;;;;493198;241;28786;-69
2022/08/06 08:19:55;;;;;;;2.10;1.80;;;17.40;99.90;;;;;;493225;241;28688;-68
2022/08/06 08:21:57;;;;;;;1.80;1.70;;;17.40;99.90;;;;;;493262;241;28731;-69
2022/08/06 08:23:58;;;;;;;2.40;1.73;;;17.50;99.90;;;;;;493252;241;29712;-68
2022/08/06 08:25:59;;;;;;;2.03;1.60;;;17.70;99.90;;;;;;493263;241;29136;-72
2022/08/06 08:28:00;;;;;;;1.93;1.60;;;17.80;99.90;;;;;;493224;241;29222;-70
2022/08/06 08:30:02;;;;;;;3.87;1.80;;;17.70;99.90;;;;;;493255;241;29252;-68
2022/08/06 08:32:03;;;;;;;2.90;1.90;;;17.70;99.90;;;;;;493249;241;28713;-71
2022/08/06 08:34:05;;;;;;;2.30;2.00;;;17.70;99.90;;;;;;493284;241;28763;-69
2022/08/06 08:36:05;;;;;;;5.30;2.10;;;17.60;99.90;;;;;;493133;241;28762;-69
2022/08/06 08:38:07;;;;;;;2.30;2.10;;;17.80;99.90;;;;;;493333;241;28707;-70
2022/08/06 08:40:08;;;;;;;4.20;1.73;;;17.80;99.90;;;;;;493303;241;28698;-69
2022/08/06 08:42:09;;;;;;;2.97;2.67;;;17.80;99.90;;;;;;493278;241;28806;-68
2022/08/06 08:44:11;;;;;;;2.73;2.20;;;17.70;99.90;;;;;;493319;241;29060;-72
2022/08/06 08:46:12;;;;;;;3.87;1.90;;;17.60;99.90;;;;;;493224;241;28674;-69
2022/08/06 08:48:13;;;;;;;1.87;1.77;;;17.70;99.90;;;;;;493296;241;28750;-69
2022/08/06 08:50:14;;;;;;;1.90;1.80;;;17.70;99.90;;;;;;493287;241;29247;-68
2022/08/06 08:52:15;;;;;;;2.00;1.90;;;17.70;99.90;;;;;;493253;241;29178;-68
2022/08/06 08:54:17;;;;;;;4.10;2.20;;;17.80;99.90;;;;;;493327;241;29297;-69
2022/08/06 08:56:18;;;;;;;2.40;2.20;;;17.80;99.90;;;;;;493240;241;28714;-69
2022/08/06 08:58:21;;;;;;;2.13;1.93;;;17.70;99.90;;;;;;493270;241;28712;-69
2022/08/06 09:00:21;;;;;;;3.40;1.97;;;18.00;99.90;;;;;;493181;241;29183;-68
2022/08/06 09:02:23;;;;;;;3.23;2.60;;;18.10;99.90;;;;;;493270;241;29220;-68
2022/08/06 09:04:23;;;;;;;2.20;2.10;;;18.00;99.90;;;;;;493242;241;29187;-72
2022/08/06 09:06:24;;;;;;;2.40;2.30;;;18.10;99.90;;;;;;493231;241;29210;-68
2022/08/06 09:08:26;;;;;;;4.50;1.97;;;18.00;99.90;;;;;;493267;241;28783;-69
2022/08/06 09:10:27;;;;;;;2.30;2.10;;;18.10;99.90;;;;;;493271;241;28678;-68
2022/08/06 09:12:28;;;;;;;3.93;2.10;;;18.30;99.90;;;;;;493305;241;28691;-68
2022/08/06 09:14:29;;;;;;;1.90;1.80;;;18.40;99.90;;;;;;493322;241;28779;-72
2022/08/06 09:16:31;;;;;;;1.70;1.60;;;18.50;99.90;;;;;;493200;241;28813;-68
2022/08/06 09:18:32;;;;;;;2.70;2.00;;;18.50;99.90;;;;;;493286;241;28782;-69
2022/08/06 09:20:33;;;;;;;2.07;1.90;;;18.30;99.90;;;;;;493262;241;28793;-68
2022/08/06 09:22:34;;;;;;;2.83;2.07;;;18.50;99.90;;;;;;493298;241;28680;-68
2022/08/06 09:24:36;;;;;;;3.00;2.30;;;18.50;99.90;;;;;;493293;241;29294;-71
2022/08/06 09:26:37;;;;;;;1.87;1.77;;;18.60;99.90;;;;;;493209;241;29143;-69
2022/08/06 09:28:38;;;;;;;1.80;1.70;;;18.60;99.90;;;;;;493271;241;29321;-69
2022/08/06 09:30:39;;;;;;;5.60;2.00;;;18.50;99.90;;;;;;493251;241;31012;-69
2022/08/06 09:32:41;;;;;;;2.20;2.10;;;18.40;99.90;;;;;;493287;241;28748;-69
2022/08/06 09:34:42;;;;;;;3.07;1.67;;;18.40;99.90;;;;;;493273;241;28722;-71
2022/08/06 09:36:43;;;;;;;2.53;1.67;;;18.40;99.90;;;;;;493102;241;28762;-69
2022/08/06 09:38:45;;;;;;;1.97;1.40;;;18.30;99.90;;;;;;493283;241;28700;-70
2022/08/06 09:40:46;;;;;;;1.60;1.50;;;18.20;99.90;;;;;;493270;241;28665;-68
2022/08/06 09:42:50;;;;;;;2.87;1.80;;;18.50;99.90;;;;;;493272;241;28790;-69
2022/08/06 09:44:48;;;;;;;2.63;1.70;;;18.50;99.90;;;;;;493073;241;29251;-71
2022/08/06 09:46:50;;;;;;;1.87;1.73;;;18.90;99.90;;;;;;493229;241;28679;-69
2022/08/06 09:48:51;;;;;;;1.50;1.40;;;18.80;99.90;;;;;;493213;241;28790;-69
2022/08/06 09:50:52;;;;;;;3.00;1.80;;;18.70;99.90;;;;;;493277;241;28677;-68
2022/08/06 09:52:53;;;;;;;3.20;1.50;;;18.70;99.90;;;;;;493286;241;28668;-69
2022/08/06 09:54:54;;;;;;;4.90;1.80;;;18.80;99.90;;;;;;493279;241;28778;-71
2022/08/06 09:56:56;;;;;;;2.20;2.10;;;18.70;99.90;;;;;;493209;241;28687;-68
2022/08/06 09:58:57;;;;;;;2.67;1.60;;;18.50;99.90;;;;;;493264;241;28705;-69
2022/08/06 10:00:58;;;;;;;2.17;1.47;;;18.40;99.90;;;;;;493247;241;28676;-68
2022/08/06 10:02:59;;;;;;;2.27;1.70;;;18.50;99.90;;;;;;493281;241;29181;-69
2022/08/06 10:05:01;;;;;;;2.80;1.63;;;18.60;99.90;;;;;;493286;241;29297;-71
2022/08/06 10:07:03;;;;;;;1.73;1.57;;;18.20;99.90;;;;;;493220;241;29239;-68
2022/08/06 10:09:03;;;;;;;2.10;1.57;;;18.50;99.90;;;;;;493252;241;29268;-69
2022/08/06 10:11:04;;;;;;;1.50;1.40;;;18.60;99.90;;;;;;493286;241;28696;-68
2022/08/06 10:13:06;;;;;;;4.03;1.90;;;18.90;99.90;;;;;;493311;241;28757;-69
2022/08/06 10:15:07;;;;;;;1.60;1.50;;;18.90;99.90;;;;;;493281;241;28747;-72
2022/08/06 10:17:08;;;;;;;1.67;1.57;;;19.00;99.90;;;;;;493243;241;28760;-69
2022/08/06 10:19:09;;;;;;;3.63;1.57;;;19.00;99.90;;;;;;493286;241;28777;-70
2022/08/06 10:21:11;;;;;;;1.53;1.43;;;19.20;99.90;;;;;;493258;241;28759;-68
2022/08/06 10:23:13;;;;;;;4.80;1.53;;;19.00;99.90;;;;;;493242;241;28789;-69
2022/08/06 10:25:13;;;;;;;2.00;1.70;;;19.00;99.90;;;;;;493258;241;28705;-70
2022/08/06 10:27:14;;;;;;;1.90;1.80;;;19.00;99.90;;;;;;493229;241;28672;-69
2022/08/06 10:29:16;;;;;;;4.70;1.50;;;19.20;99.90;;;;;;493225;241;29236;-69
2022/08/06 10:31:17;;;;;;;4.00;1.83;;;19.20;99.90;;;;;;493270;241;29906;-68
2022/08/06 10:33:18;;;;;;;1.70;1.60;;;19.30;99.90;;;;;;493310;241;29203;-68
2022/08/06 10:35:19;;;;;;;4.83;1.87;;;19.10;99.90;;;;;;493144;241;28702;-70